sensor_id;sensor_type;location;lat;lon;timestamp;pressure;altitude;pressure_sealevel;temperature;humidity
82262;BME280;71861;52.364;6.580;2024-02-04T04:02:01;102232.41;;;7.65;100.00
82262;BME280;71861;52.364;6.580;2024-02-04T04:04:26;102234.50;;;7.60;100.00
82262;BME280;71861;52.364;6.580;2024-02-04T04:06:51;102229.50;;;7.57;100.00
82262;BME280;71861;52.364;6.580;2024-02-04T04:09:17;102243.41;;;7.56;100.00
82262;BME280;71861;52.364;6.580;2024-02-04T04:11:42;102245.97;;;7.56;100.00
82262;BME280;71861;52.364;6.580;2024-02-04T04:16:43;102256.13;;;7.59;100.00
82262;BME280;71861;52.364;6.580;2024-02-04T04:19:09;102254.38;;;7.60;100.00
82262;BME280;71861;52.364;6.580;2024-02-04T04:21:34;102240.59;;;7.59;100.00
82262;BME280;71861;52.364;6.580;2024-02-04T04:24:01;102245.56;;;7.62;100.00
82262;BME280;71861;52.364;6.580;2024-02-04T04:26:26;102229.13;;;7.63;100.00
82262;BME280;71861;52.364;6.580;2024-02-04T04:28:51;102231.72;;;7.63;100.00
82262;BME280;71861;52.364;6.580;2024-02-04T04:31:17;102236.38;;;7.58;100.00
82262;BME280;71861;52.364;6.580;2024-02-04T04:33:42;102221.88;;;7.56;100.00
82262;BME280;71861;52.364;6.580;2024-02-04T04:36:07;102210.72;;;7.55;100.00
82262;BME280;71861;52.364;6.580;2024-02-04T04:38:33;102213.50;;;7.52;100.00
82262;BME280;71861;52.364;6.580;2024-02-04T04:40:58;102212.03;;;7.48;100.00
82262;BME280;71861;52.364;6.580;2024-02-04T04:43:24;102208.03;;;7.44;100.00
82262;BME280;71861;52.364;6.580;2024-02-04T04:45:49;102218.56;;;7.41;100.00
82262;BME280;71861;52.364;6.580;2024-02-04T04:48:15;102219.00;;;7.35;100.00
82262;BME280;71861;52.364;6.580;2024-02-04T04:50:40;102227.19;;;7.29;100.00
82262;BME280;71861;52.364;6.580;2024-02-04T04:53:05;102212.69;;;7.27;100.00
82262;BME280;71861;52.364;6.580;2024-02-04T04:55:30;102207.72;;;7.24;100.00
82262;BME280;71861;52.364;6.580;2024-02-04T04:57:56;102212.19;;;7.22;100.00
82262;BME280;71861;52.364;6.580;2024-02-04T05:00:21;102199.34;;;7.20;100.00
82262;BME280;71861;52.364;6.580;2024-02-04T05:02:47;102199.34;;;7.20;100.00
82262;BME280;71861;52.364;6.580;2024-02-04T05:05:13;102181.97;;;7.22;100.00
82262;BME280;71861;52.364;6.580;2024-02-04T05:07:40;102181.84;;;7.24;100.00
82262;BME280;71861;52.364;6.580;2024-02-04T05:10:05;102182.69;;;7.24;100.00
82262;BME280;71861;52.364;6.580;2024-02-04T05:12:32;102182.47;;;7.27;100.00
82262;BME280;71861;52.364;6.580;2024-02-04T05:14:58;102175.56;;;7.28;100.00
82262;BME280;71861;52.364;6.580;2024-02-04T05:17:23;102185.81;;;7.29;100.00
82262;BME280;71861;52.364;6.580;2024-02-04T05:19:48;102188.19;;;7.32;100.00
82262;BME280;71861;52.364;6.580;2024-02-04T05:22:14;102191.34;;;7.36;100.00
82262;BME280;71861;52.364;6.580;2024-02-04T05:24:40;102174.00;;;7.38;100.00
82262;BME280;71861;52.364;6.580;2024-02-04T05:27:06;102185.91;;;7.40;100.00
82262;BME280;71861;52.364;6.580;2024-02-04T05:29:31;102184.97;;;7.41;100.00
82262;BME280;71861;52.364;6.580;2024-02-04T05:31:57;102185.69;;;7.43;100.00
82262;BME280;71861;52.364;6.580;2024-02-04T05:34:22;102185.69;;;7.43;100.00
82262;BME280;71861;52.364;6.580;2024-02-04T05:36:48;102179.56;;;7.44;100.00
82262;BME280;71861;52.364;6.580;2024-02-04T05:39:14;102185.59;;;7.45;100.00
82262;BME280;71861;52.364;6.580;2024-02-04T05:41:41;102197.69;;;7.44;100.00
82262;BME280;71861;52.364;6.580;2024-02-04T05:44:07;102193.25;;;7.46;100.00
82262;BME280;71861;52.364;6.580;2024-02-04T05:46:34;102199.94;;;7.49;100.00
82262;BME280;71861;52.364;6.580;2024-02-04T05:49:00;102198.19;;;7.49;100.00
82262;BME280;71861;52.364;6.580;2024-02-04T05:51:25;102192.91;;;7.51;100.00
82262;BME280;71861;52.364;6.580;2024-02-04T05:53:50;102185.06;;;7.52;100.00
82262;BME280;71861;52.364;6.580;2024-02-04T05:56:16;102186.69;;;7.53;100.00
82262;BME280;71861;52.364;6.580;2024-02-04T05:58:41;102175.41;;;7.54;100.00
82262;BME280;71861;52.364;6.580;2024-02-04T06:01:06;102169.31;;;7.55;100.00
82262;BME280;71861;52.364;6.580;2024-02-04T06:03:32;102173.66;;;7.55;100.00
82262;BME280;71861;52.364;6.580;2024-02-04T06:05:58;102175.41;;;7.54;100.00
82262;BME280;71861;52.364;6.580;2024-02-04T06:08:23;102148.63;;;7.55;100.00
82262;BME280;71861;52.364;6.580;2024-02-04T06:10:48;102163.22;;;7.56;100.00
82262;BME280;71861;52.364;6.580;2024-02-04T06:13:14;102181.31;;;7.56;100.00
82262;BME280;71861;52.364;6.580;2024-02-04T06:15:39;102178.84;;;7.55;100.00
82262;BME280;71861;52.364;6.580;2024-02-04T06:18:05;102190.00;;;7.55;100.00
82262;BME280;71861;52.364;6.580;2024-02-04T06:20:30;102193.50;;;7.54;100.00
82262;BME280;71861;52.364;6.580;2024-02-04T06:22:55;102193.41;;;7.56;100.00
82262;BME280;71861;52.364;6.580;2024-02-04T06:25:23;102188.22;;;7.56;100.00
82262;BME280;71861;52.364;6.580;2024-02-04T06:27:48;102181.41;;;7.55;99.74
82262;BME280;71861;52.364;6.580;2024-02-04T06:30:13;102175.41;;;7.54;99.88
82262;BME280;71861;52.364;6.580;2024-02-04T06:32:39;102175.41;;;7.54;97.81
82262;BME280;71861;52.364;6.580;2024-02-04T06:35:04;102186.47;;;7.56;98.03
82262;BME280;71861;52.364;6.580;2024-02-04T06:37:30;102179.66;;;7.55;97.60
82262;BME280;71861;52.364;6.580;2024-02-04T06:39:55;102195.19;;;7.55;98.69
82262;BME280;71861;52.364;6.580;2024-02-04T06:42:20;102174.72;;;7.52;96.88
82262;BME280;71861;52.364;6.580;2024-02-04T06:44:46;102171.91;;;7.55;98.00
82262;BME280;71861;52.364;6.580;2024-02-04T06:47:12;102179.88;;;7.52;98.18
82262;BME280;71861;52.364;6.580;2024-02-04T06:49:39;102181.75;;;7.50;97.62
82262;BME280;71861;52.364;6.580;2024-02-04T06:52:05;102184.53;;;7.47;97.24
82262;BME280;71861;52.364;6.580;2024-02-04T06:54:30;102179.88;;;7.52;96.99
82262;BME280;71861;52.364;6.580;2024-02-04T06:56:55;102177.28;;;7.52;96.98
82262;BME280;71861;52.364;6.580;2024-02-04T06:59:20;102158.47;;;7.50;96.22
82262;BME280;71861;52.364;6.580;2024-02-04T07:01:46;102165.38;;;7.50;96.74
82262;BME280;71861;52.364;6.580;2024-02-04T07:04:11;102160.41;;;7.47;96.97
82262;BME280;71861;52.364;6.580;2024-02-04T07:06:36;102166.22;;;7.50;97.26
82262;BME280;71861;52.364;6.580;2024-02-04T07:09:02;102168.50;;;7.42;97.31
82262;BME280;71861;52.364;6.580;2024-02-04T07:11:27;102149.69;;;7.40;96.86
82262;BME280;71861;52.364;6.580;2024-02-04T07:13:53;102159.22;;;7.40;97.69
82262;BME280;71861;52.364;6.580;2024-02-04T07:16:24;102149.06;;;7.37;97.86
82262;BME280;71861;52.364;6.580;2024-02-04T07:18:49;102153.41;;;7.36;97.41
82262;BME280;71861;52.364;6.580;2024-02-04T07:21:15;102146.59;;;7.35;98.29
82262;BME280;71861;52.364;6.580;2024-02-04T07:23:41;102157.75;;;7.36;98.06
82262;BME280;71861;52.364;6.580;2024-02-04T07:26:06;102151.56;;;7.38;97.70
82262;BME280;71861;52.364;6.580;2024-02-04T07:28:32;102156.72;;;7.38;98.09
82262;BME280;71861;52.364;6.580;2024-02-04T07:30:57;102157.47;;;7.40;98.19
82262;BME280;71861;52.364;6.580;2024-02-04T07:33:22;102145.34;;;7.41;97.99
82262;BME280;71861;52.364;6.580;2024-02-04T07:35:47;102141.84;;;7.42;98.06
82262;BME280;71861;52.364;6.580;2024-02-04T07:38:13;102140.78;;;7.44;98.67
82262;BME280;71861;52.364;6.580;2024-02-04T07:40:38;102131.16;;;7.46;98.93
82262;BME280;71861;52.364;6.580;2024-02-04T07:43:03;102122.56;;;7.46;99.04
82262;BME280;71861;52.364;6.580;2024-02-04T07:45:28;102135.19;;;7.50;99.42
82262;BME280;71861;52.364;6.580;2024-02-04T07:47:54;102146.03;;;7.55;99.41
82262;BME280;71861;52.364;6.580;2024-02-04T07:50:19;102125.25;;;7.57;99.35
82262;BME280;71861;52.364;6.580;2024-02-04T07:52:45;102119.75;;;7.61;99.45
82262;BME280;71861;52.364;6.580;2024-02-04T07:55:10;102119.53;;;7.64;99.73
82262;BME280;71861;52.364;6.580;2024-02-04T07:57:36;102118.56;;;7.65;99.69
82262;BME280;71861;52.364;6.580;2024-02-04T08:00:01;102118.97;;;7.72;100.00
82262;BME280;71861;52.364;6.580;2024-02-04T08:02:30;102120.19;;;7.79;100.00
82262;BME280;71861;52.364;6.580;2024-02-04T08:04:55;102109.72;;;7.80;100.00
82262;BME280;71861;52.364;6.580;2024-02-04T08:07:21;102110.22;;;7.85;100.00
82262;BME280;71861;52.364;6.580;2024-02-04T08:09:46;102107.19;;;7.91;100.00
82262;BME280;71861;52.364;6.580;2024-02-04T08:12:11;102108.53;;;7.97;100.00
82262;BME280;71861;52.364;6.580;2024-02-04T08:14:37;102107.38;;;8.01;100.00
82262;BME280;71861;52.364;6.580;2024-02-04T08:17:02;102111.28;;;8.06;100.00
82262;BME280;71861;52.364;6.580;2024-02-04T08:19:28;102129.78;;;8.13;100.00
82262;BME280;71861;52.364;6.580;2024-02-04T08:21:53;102110.97;;;8.11;100.00
82262;BME280;71861;52.364;6.580;2024-02-04T08:24:18;102117.03;;;8.22;99.77
82262;BME280;71861;52.364;6.580;2024-02-04T08:26:44;102133.06;;;8.27;99.84
82262;BME280;71861;52.364;6.580;2024-02-04T08:29:10;102136.16;;;8.32;100.00
82262;BME280;71861;52.364;6.580;2024-02-04T08:31:36;102140.28;;;8.35;99.16
82262;BME280;71861;52.364;6.580;2024-02-04T08:34:02;102129.56;;;8.39;99.04
82262;BME280;71861;52.364;6.580;2024-02-04T08:36:29;102126.75;;;8.42;98.60
82262;BME280;71861;52.364;6.580;2024-02-04T08:38:55;102127.25;;;8.48;98.00
82262;BME280;71861;52.364;6.580;2024-02-04T08:41:21;102129.63;;;8.51;98.20
82262;BME280;71861;52.364;6.580;2024-02-04T08:43:46;102110.53;;;8.52;98.20
82262;BME280;71861;52.364;6.580;2024-02-04T08:46:12;102117.38;;;8.53;97.21
82262;BME280;71861;52.364;6.580;2024-02-04T08:48:37;102103.25;;;8.57;96.65
82262;BME280;71861;52.364;6.580;2024-02-04T08:51:03;102115.13;;;8.59;97.20
82262;BME280;71861;52.364;6.580;2024-02-04T08:53:28;102114.09;;;8.62;96.79
82262;BME280;71861;52.364;6.580;2024-02-04T08:55:53;102120.00;;;8.64;96.61
82262;BME280;71861;52.364;6.580;2024-02-04T08:58:18;102104.22;;;8.67;97.04
82262;BME280;71861;52.364;6.580;2024-02-04T09:00:44;102118.72;;;8.69;96.58
82262;BME280;71861;52.364;6.580;2024-02-04T09:03:09;102111.66;;;8.71;95.92
82262;BME280;71861;52.364;6.580;2024-02-04T09:05:34;102108.00;;;8.74;95.84
82262;BME280;71861;52.364;6.580;2024-02-04T09:08:00;102112.00;;;8.78;94.85
82262;BME280;71861;52.364;6.580;2024-02-04T09:10:26;102127.31;;;8.81;95.82
82262;BME280;71861;52.364;6.580;2024-02-04T09:12:51;102115.06;;;8.83;95.77
82262;BME280;71861;52.364;6.580;2024-02-04T09:15:17;102120.25;;;8.83;95.58
82262;BME280;71861;52.364;6.580;2024-02-04T09:17:42;102114.94;;;8.84;96.30
82262;BME280;71861;52.364;6.580;2024-02-04T09:20:08;102112.38;;;8.84;96.74
82262;BME280;71861;52.364;6.580;2024-02-04T09:22:33;102117.53;;;8.84;96.16
82262;BME280;71861;52.364;6.580;2024-02-04T09:24:59;102117.66;;;8.83;95.76
82262;BME280;71861;52.364;6.580;2024-02-04T09:27:24;102116.63;;;8.85;96.21
82262;BME280;71861;52.364;6.580;2024-02-04T09:29:50;102127.69;;;8.87;96.42
82262;BME280;71861;52.364;6.580;2024-02-04T09:32:16;102126.66;;;8.90;96.92
82262;BME280;71861;52.364;6.580;2024-02-04T09:34:41;102129.69;;;8.95;97.01
82262;BME280;71861;52.364;6.580;2024-02-04T09:37:07;102118.28;;;8.97;96.73
82262;BME280;71861;52.364;6.580;2024-02-04T09:39:32;102113.44;;;9.04;96.88
82262;BME280;71861;52.364;6.580;2024-02-04T09:41:58;102129.47;;;9.09;97.91
82262;BME280;71861;52.364;6.580;2024-02-04T09:44:24;102126.63;;;9.12;98.29
82262;BME280;71861;52.364;6.580;2024-02-04T09:46:50;102130.91;;;9.13;98.36
82262;BME280;71861;52.364;6.580;2024-02-04T09:49:17;102134.31;;;9.13;98.60
82262;BME280;71861;52.364;6.580;2024-02-04T09:51:44;102135.25;;;9.12;99.33
82262;BME280;71861;52.364;6.580;2024-02-04T09:54:10;102139.50;;;9.13;99.66
82262;BME280;71861;52.364;6.580;2024-02-04T09:56:37;102139.50;;;9.13;100.00
82262;BME280;71861;52.364;6.580;2024-02-04T09:59:04;102132.31;;;9.17;100.00
82262;BME280;71861;52.364;6.580;2024-02-04T10:01:29;102129.47;;;9.20;100.00
82262;BME280;71861;52.364;6.580;2024-02-04T10:03:55;102116.50;;;9.20;100.00
82262;BME280;71861;52.364;6.580;2024-02-04T10:06:20;102110.97;;;9.24;100.00
82262;BME280;71861;52.364;6.580;2024-02-04T10:08:46;102107.34;;;9.27;100.00
82262;BME280;71861;52.364;6.580;2024-02-04T10:11:11;102108.97;;;9.28;100.00
82262;BME280;71861;52.364;6.580;2024-02-04T10:13:47;102109.69;;;9.30;100.00
82262;BME280;71861;52.364;6.580;2024-02-04T10:16:17;102109.81;;;9.28;100.00
82262;BME280;71861;52.364;6.580;2024-02-04T10:18:46;102100.22;;;9.29;100.00
82262;BME280;71861;52.364;6.580;2024-02-04T10:21:20;102103.06;;;9.26;100.00
82262;BME280;71861;52.364;6.580;2024-02-04T10:23:50;102108.97;;;9.28;100.00
82262;BME280;71861;52.364;6.580;2024-02-04T10:26:16;102112.41;;;9.28;100.00
82262;BME280;71861;52.364;6.580;2024-02-04T10:28:45;102107.78;;;9.32;100.00
82262;BME280;71861;52.364;6.580;2024-02-04T10:31:11;102110.84;;;9.37;100.00
82262;BME280;71861;52.364;6.580;2024-02-04T10:33:37;102105.19;;;9.43;100.00
82262;BME280;71861;52.364;6.580;2024-02-04T10:36:03;102084.53;;;9.41;100.00
82262;BME280;71861;52.364;6.580;2024-02-04T10:38:29;102101.75;;;9.53;100.00
82262;BME280;71861;52.364;6.580;2024-02-04T10:40:55;102110.84;;;9.59;100.00
82262;BME280;71861;52.364;6.580;2024-02-04T10:43:23;102102.81;;;9.62;100.00
82262;BME280;71861;52.364;6.580;2024-02-04T10:45:52;102103.47;;;9.64;100.00
82262;BME280;71861;52.364;6.580;2024-02-04T10:48:24;102107.63;;;9.66;100.00
82262;BME280;71861;52.364;6.580;2024-02-04T10:50:49;102093.69;;;9.67;100.00
82262;BME280;71861;52.364;6.580;2024-02-04T10:53:17;102098.63;;;9.70;100.00
82262;BME280;71861;52.364;6.580;2024-02-04T10:55:46;102092.16;;;9.76;100.00
82262;BME280;71861;52.364;6.580;2024-02-04T10:58:13;102079.59;;;9.81;100.00
82262;BME280;71861;52.364;6.580;2024-02-04T11:00:40;102087.28;;;9.82;100.00
82262;BME280;71861;52.364;6.580;2024-02-04T11:03:06;102083.38;;;9.88;100.00
82262;BME280;71861;52.364;6.580;2024-02-04T11:05:32;102088.56;;;9.88;100.00
82262;BME280;71861;52.364;6.580;2024-02-04T11:07:57;102067.91;;;9.86;100.00
82262;BME280;71861;52.364;6.580;2024-02-04T11:10:24;102086.81;;;9.88;100.00
82262;BME280;71861;52.364;6.580;2024-02-04T11:12:50;102080.78;;;9.88;100.00
82262;BME280;71861;52.364;6.580;2024-02-04T11:15:18;102080.78;;;9.88;100.00
82262;BME280;71861;52.364;6.580;2024-02-04T11:17:58;102089.53;;;9.87;100.00
82262;BME280;71861;52.364;6.580;2024-02-04T11:20:37;102084.09;;;9.90;100.00
82262;BME280;71861;52.364;6.580;2024-02-04T11:25:57;102072.38;;;9.95;100.00
82262;BME280;71861;52.364;6.580;2024-02-04T11:28:23;102075.56;;;9.99;100.00
82262;BME280;71861;52.364;6.580;2024-02-04T11:30:51;102081.19;;;10.04;99.80
82262;BME280;71861;52.364;6.580;2024-02-04T11:33:20;102065.41;;;10.07;99.85
82262;BME280;71861;52.364;6.580;2024-02-04T11:35:46;102059.00;;;10.11;96.63
82262;BME280;71861;52.364;6.580;2024-02-04T11:38:17;102052.47;;;10.17;94.43
82262;BME280;71861;52.364;6.580;2024-02-04T11:40:42;102059.88;;;10.21;94.07
82262;BME280;71861;52.364;6.580;2024-02-04T11:43:11;102060.72;;;10.22;94.63
82262;BME280;71861;52.364;6.580;2024-02-04T11:45:41;102056.03;;;10.16;93.22
82262;BME280;71861;52.364;6.580;2024-02-04T11:48:07;102061.81;;;10.19;91.25
82262;BME280;71861;52.364;6.580;2024-02-04T11:50:33;102063.56;;;10.19;91.41
82262;BME280;71861;52.364;6.580;2024-02-04T11:53:07;102051.66;;;10.16;90.85
82262;BME280;71861;52.364;6.580;2024-02-04T11:55:34;102046.97;;;10.10;90.95
82262;BME280;71861;52.364;6.580;2024-02-04T11:57:59;102056.66;;;10.08;91.20
82262;BME280;71861;52.364;6.580;2024-02-04T12:00:25;102056.88;;;10.05;91.42
82262;BME280;71861;52.364;6.580;2024-02-04T12:03:04;102058.75;;;10.03;91.19
82262;BME280;71861;52.364;6.580;2024-02-04T12:05:34;102038.22;;;10.00;91.30
82262;BME280;71861;52.364;6.580;2024-02-04T12:08:04;102034.81;;;9.99;93.05
82262;BME280;71861;52.364;6.580;2024-02-04T12:10:31;102037.28;;;10.01;93.12
82262;BME280;71861;52.364;6.580;2024-02-04T12:13:07;102029.50;;;10.01;93.76
82262;BME280;71861;52.364;6.580;2024-02-04T12:15:34;102053.31;;;10.06;93.66
82262;BME280;71861;52.364;6.580;2024-02-04T12:20:32;102044.00;;;10.15;92.88
82262;BME280;71861;52.364;6.580;2024-02-04T12:22:58;102006.94;;;10.01;92.19
82262;BME280;71861;52.364;6.580;2024-02-04T12:25:23;102033.41;;;10.27;92.90
82262;BME280;71861;52.364;6.580;2024-02-04T12:27:52;102023.44;;;10.32;92.06
82262;BME280;71861;52.364;6.580;2024-02-04T12:30:17;102030.06;;;10.36;91.15
82262;BME280;71861;52.364;6.580;2024-02-04T12:32:43;102024.84;;;10.36;91.65
82262;BME280;71861;52.364;6.580;2024-02-04T12:35:13;102026.38;;;10.39;92.06
82262;BME280;71861;52.364;6.580;2024-02-04T12:37:38;102030.09;;;10.46;90.87
82262;BME280;71861;52.364;6.580;2024-02-04T12:40:04;102037.22;;;10.44;90.81
82262;BME280;71861;52.364;6.580;2024-02-04T12:42:31;102039.69;;;10.45;90.97
82262;BME280;71861;52.364;6.580;2024-02-04T12:44:57;102048.16;;;10.47;92.04
82262;BME280;71861;52.364;6.580;2024-02-04T12:47:23;102045.47;;;10.49;92.21
82262;BME280;71861;52.364;6.580;2024-02-04T12:49:51;102030.53;;;10.51;92.03
82262;BME280;71861;52.364;6.580;2024-02-04T12:52:22;102028.63;;;10.53;92.17
82262;BME280;71861;52.364;6.580;2024-02-04T12:54:48;102018.13;;;10.54;91.91
82262;BME280;71861;52.364;6.580;2024-02-04T12:57:22;102012.66;;;10.57;92.64
82262;BME280;71861;52.364;6.580;2024-02-04T12:59:48;102011.56;;;10.60;92.46
82262;BME280;71861;52.364;6.580;2024-02-04T13:02:14;102001.75;;;10.63;90.82
82262;BME280;71861;52.364;6.580;2024-02-04T13:04:41;101992.72;;;10.67;91.39
82262;BME280;71861;52.364;6.580;2024-02-04T13:07:11;102001.91;;;10.71;91.43
82262;BME280;71861;52.364;6.580;2024-02-04T13:09:42;102007.81;;;10.73;89.84
82262;BME280;71861;52.364;6.580;2024-02-04T13:12:09;102005.88;;;10.75;90.85
82262;BME280;71861;52.364;6.580;2024-02-04T13:14:36;101993.97;;;10.73;91.28
82262;BME280;71861;52.364;6.580;2024-02-04T13:17:05;101995.50;;;10.75;89.31
82262;BME280;71861;52.364;6.580;2024-02-04T13:19:34;102028.50;;;10.75;89.47
82262;BME280;71861;52.364;6.580;2024-02-04T13:22:00;102009.97;;;10.68;89.42
82262;BME280;71861;52.364;6.580;2024-02-04T13:24:25;102016.81;;;10.69;90.48
82262;BME280;71861;52.364;6.580;2024-02-04T13:26:50;102006.69;;;10.66;90.64
82262;BME280;71861;52.364;6.580;2024-02-04T13:29:16;101994.19;;;10.60;91.11
82262;BME280;71861;52.364;6.580;2024-02-04T13:31:41;101992.56;;;10.59;90.87
82262;BME280;71861;52.364;6.580;2024-02-04T13:34:07;101999.41;;;10.60;91.07
82262;BME280;71861;52.364;6.580;2024-02-04T13:36:32;101996.22;;;10.57;91.29
82262;BME280;71861;52.364;6.580;2024-02-04T13:38:58;101992.66;;;10.48;91.56
82262;BME280;71861;52.364;6.580;2024-02-04T13:41:23;101999.22;;;10.52;92.38
82262;BME280;71861;52.364;6.580;2024-02-04T13:43:48;102000.31;;;10.50;91.66
82262;BME280;71861;52.364;6.580;2024-02-04T13:46:14;102002.06;;;10.49;91.80
82262;BME280;71861;52.364;6.580;2024-02-04T13:48:40;101989.59;;;10.43;91.86
82262;BME280;71861;52.364;6.580;2024-02-04T13:51:05;101995.50;;;10.45;92.16
82262;BME280;71861;52.364;6.580;2024-02-04T13:53:30;101996.44;;;10.44;92.54
82262;BME280;71861;52.364;6.580;2024-02-04T13:55:59;101984.91;;;10.37;93.47
82262;BME280;71861;52.364;6.580;2024-02-04T13:58:24;101964.91;;;10.28;94.87
82262;BME280;71861;52.364;6.580;2024-02-04T14:00:50;101972.19;;;10.13;95.96
82262;BME280;71861;52.364;6.580;2024-02-04T14:03:15;101976.50;;;10.03;96.70
82262;BME280;71861;52.364;6.580;2024-02-04T14:05:40;101979.41;;;9.89;96.28
82262;BME280;71861;52.364;6.580;2024-02-04T14:08:07;101976.94;;;9.88;96.27
82262;BME280;71861;52.364;6.580;2024-02-04T14:10:32;101980.41;;;9.77;96.76
82262;BME280;71861;52.364;6.580;2024-02-04T14:12:57;101986.16;;;9.81;97.12
82262;BME280;71861;52.364;6.580;2024-02-04T14:15:23;101969.56;;;9.72;98.04
82262;BME280;71861;52.364;6.580;2024-02-04T14:17:48;101976.66;;;9.70;98.68
82262;BME280;71861;52.364;6.580;2024-02-04T14:20:14;101986.56;;;9.65;99.07
82262;BME280;71861;52.364;6.580;2024-02-04T14:22:39;101988.75;;;9.60;99.31
82262;BME280;71861;52.364;6.580;2024-02-04T14:25:05;101978.97;;;9.53;100.00
82262;BME280;71861;52.364;6.580;2024-02-04T14:27:31;101972.88;;;9.43;100.00
82262;BME280;71861;52.364;6.580;2024-02-04T14:29:56;101969.38;;;9.33;100.00
82262;BME280;71861;52.364;6.580;2024-02-04T14:32:22;101972.34;;;9.17;100.00
82262;BME280;71861;52.364;6.580;2024-02-04T14:34:47;101980.63;;;9.11;100.00
82262;BME280;71861;52.364;6.580;2024-02-04T14:37:13;101975.34;;;9.02;100.00
82262;BME280;71861;52.364;6.580;2024-02-04T14:39:39;101968.97;;;8.95;100.00
82262;BME280;71861;52.364;6.580;2024-02-04T14:42:06;101976.97;;;8.92;100.00
82262;BME280;71861;52.364;6.580;2024-02-04T14:44:33;101978.19;;;8.88;100.00
82262;BME280;71861;52.364;6.580;2024-02-04T14:46:59;101974.06;;;8.85;100.00
82262;BME280;71861;52.364;6.580;2024-02-04T14:49:24;101973.47;;;8.82;100.00
82262;BME280;71861;52.364;6.580;2024-02-04T14:51:50;101976.97;;;8.81;100.00
82262;BME280;71861;52.364;6.580;2024-02-04T14:54:15;101966.84;;;8.78;100.00
82262;BME280;71861;52.364;6.580;2024-02-04T14:56:41;101971.00;;;8.80;100.00
82262;BME280;71861;52.364;6.580;2024-02-04T14:59:10;101961.44;;;8.81;100.00
82262;BME280;71861;52.364;6.580;2024-02-04T15:01:37;101956.25;;;8.81;100.00
82262;BME280;71861;52.364;6.580;2024-02-04T15:04:02;101958.72;;;8.82;100.00
82262;BME280;71861;52.364;6.580;2024-02-04T15:06:28;101956.25;;;8.81;100.00
82262;BME280;71861;52.364;6.580;2024-02-04T15:08:55;101947.56;;;8.82;100.00
82262;BME280;71861;52.364;6.580;2024-02-04T15:11:21;101945.75;;;8.82;100.00
82262;BME280;71861;52.364;6.580;2024-02-04T15:13:47;101941.28;;;8.84;100.00
82262;BME280;71861;52.364;6.580;2024-02-04T15:16:13;101930.13;;;8.84;100.00
82262;BME280;71861;52.364;6.580;2024-02-04T15:18:39;101917.84;;;8.86;100.00
82262;BME280;71861;52.364;6.580;2024-02-04T15:21:04;101920.91;;;8.91;100.00
82262;BME280;71861;52.364;6.580;2024-02-04T15:23:30;101924.22;;;8.93;100.00
82262;BME280;71861;52.364;6.580;2024-02-04T15:25:56;101913.13;;;8.91;100.00
82262;BME280;71861;52.364;6.580;2024-02-04T15:28:23;101916.06;;;8.97;100.00
82262;BME280;71861;52.364;6.580;2024-02-04T15:30:49;101921.56;;;9.04;100.00
82262;BME280;71861;52.364;6.580;2024-02-04T15:33:14;101917.81;;;9.08;100.00
82262;BME280;71861;52.364;6.580;2024-02-04T15:35:40;101918.94;;;9.15;100.00
82262;BME280;71861;52.364;6.580;2024-02-04T15:38:05;101903.16;;;9.18;100.00
82262;BME280;71861;52.364;6.580;2024-02-04T15:40:31;101888.41;;;9.18;100.00
82262;BME280;71861;52.364;6.580;2024-02-04T15:42:56;101901.72;;;9.25;100.00
82262;BME280;71861;52.364;6.580;2024-02-04T15:45:22;101920.47;;;9.28;100.00
82262;BME280;71861;52.364;6.580;2024-02-04T15:47:50;101916.78;;;9.31;100.00
82262;BME280;71861;52.364;6.580;2024-02-04T15:50:17;101903.81;;;9.31;100.00
82262;BME280;71861;52.364;6.580;2024-02-04T15:52:43;101883.31;;;9.28;100.00
82262;BME280;71861;52.364;6.580;2024-02-04T15:55:09;101906.03;;;9.35;100.00
82262;BME280;71861;52.364;6.580;2024-02-04T15:57:35;101896.50;;;9.36;100.00
82262;BME280;71861;52.364;6.580;2024-02-04T16:00:04;101899.75;;;9.38;100.00
82262;BME280;71861;52.364;6.580;2024-02-04T16:02:44;101878.88;;;9.39;100.00
82262;BME280;71861;52.364;6.580;2024-02-04T16:05:10;101877.00;;;9.41;100.00
82262;BME280;71861;52.364;6.580;2024-02-04T16:07:36;101896.91;;;9.41;100.00
82262;BME280;71861;52.364;6.580;2024-02-04T16:10:01;101866.50;;;9.43;100.00
82262;BME280;71861;52.364;6.580;2024-02-04T16:12:27;101865.44;;;9.45;100.00
82262;BME280;71861;52.364;6.580;2024-02-04T16:17:27;101866.25;;;9.46;100.00
82262;BME280;71861;52.364;6.580;2024-02-04T16:19:53;101874.72;;;9.48;100.00
82262;BME280;71861;52.364;6.580;2024-02-04T16:22:20;101879.94;;;9.48;100.00
82262;BME280;71861;52.364;6.580;2024-02-04T16:24:46;101863.53;;;9.47;100.00
82262;BME280;71861;52.364;6.580;2024-02-04T16:27:12;101873.09;;;9.47;100.00
82262;BME280;71861;52.364;6.580;2024-02-04T16:29:38;101861.88;;;9.46;100.00
82262;BME280;71861;52.364;6.580;2024-02-04T16:32:06;101868.72;;;9.47;100.00
82262;BME280;71861;52.364;6.580;2024-02-04T16:34:32;101858.47;;;9.46;100.00
82262;BME280;71861;52.364;6.580;2024-02-04T16:37:00;101855.88;;;9.46;100.00
82262;BME280;71861;52.364;6.580;2024-02-04T16:39:25;101865.44;;;9.45;100.00
82262;BME280;71861;52.364;6.580;2024-02-04T16:41:50;101845.03;;;9.41;100.00
82262;BME280;71861;52.364;6.580;2024-02-04T16:44:16;101855.88;;;9.46;100.00
82262;BME280;71861;52.364;6.580;2024-02-04T16:46:42;101855.88;;;9.46;100.00
82262;BME280;71861;52.364;6.580;2024-02-04T16:49:07;101843.91;;;9.34;100.00
82262;BME280;71861;52.364;6.580;2024-02-04T16:51:39;101846.44;;;9.45;100.00
82262;BME280;71861;52.364;6.580;2024-02-04T16:54:05;101850.81;;;9.44;100.00
82262;BME280;71861;52.364;6.580;2024-02-04T16:56:31;101846.31;;;9.46;100.00
82262;BME280;71861;52.364;6.580;2024-02-04T16:58:57;101832.06;;;9.41;100.00